sensor_id;sensor_type;location;lat;lon;timestamp;P1;durP1;ratioP1;P2;durP2;ratioP2
23472;SDS011;11909;52.516;13.564;2023-03-11T00:00:34;20.27;;;12.75;;
23472;SDS011;11909;52.516;13.564;2023-03-11T00:03:05;18.80;;;12.93;;
23472;SDS011;11909;52.516;13.564;2023-03-11T00:05:35;20.55;;;13.05;;
23472;SDS011;11909;52.516;13.564;2023-03-11T00:08:05;16.38;;;12.02;;
23472;SDS011;11909;52.516;13.564;2023-03-11T00:10:34;19.20;;;12.73;;
23472;SDS011;11909;52.516;13.564;2023-03-11T00:13:03;19.40;;;13.93;;
23472;SDS011;11909;52.516;13.564;2023-03-11T00:15:33;18.90;;;13.20;;
23472;SDS011;11909;52.516;13.564;2023-03-11T00:18:00;21.17;;;13.73;;
23472;SDS011;11909;52.516;13.564;2023-03-11T00:20:31;19.30;;;13.13;;
23472;SDS011;11909;52.516;13.564;2023-03-11T00:23:00;19.95;;;12.75;;
23472;SDS011;11909;52.516;13.564;2023-03-11T00:25:29;17.75;;;12.48;;
23472;SDS011;11909;52.516;13.564;2023-03-11T00:27:57;20.48;;;13.25;;
23472;SDS011;11909;52.516;13.564;2023-03-11T00:30:26;20.27;;;13.52;;
23472;SDS011;11909;52.516;13.564;2023-03-11T00:32:55;19.85;;;13.50;;
23472;SDS011;11909;52.516;13.564;2023-03-11T00:35:25;18.40;;;13.07;;
23472;SDS011;11909;52.516;13.564;2023-03-11T00:37:56;21.33;;;12.85;;
23472;SDS011;11909;52.516;13.564;2023-03-11T00:40:25;17.67;;;12.43;;
23472;SDS011;11909;52.516;13.564;2023-03-11T00:42:56;20.15;;;13.75;;
23472;SDS011;11909;52.516;13.564;2023-03-11T00:45:24;18.92;;;12.85;;
23472;SDS011;11909;52.516;13.564;2023-03-11T00:47:52;17.80;;;12.65;;
23472;SDS011;11909;52.516;13.564;2023-03-11T00:50:21;18.10;;;11.70;;
23472;SDS011;11909;52.516;13.564;2023-03-11T00:52:51;17.15;;;11.70;;
23472;SDS011;11909;52.516;13.564;2023-03-11T00:55:21;15.88;;;11.70;;
23472;SDS011;11909;52.516;13.564;2023-03-11T00:57:51;16.65;;;12.00;;
23472;SDS011;11909;52.516;13.564;2023-03-11T01:00:20;15.60;;;11.30;;
23472;SDS011;11909;52.516;13.564;2023-03-11T01:02:49;14.63;;;10.05;;
23472;SDS011;11909;52.516;13.564;2023-03-11T01:05:18;17.10;;;10.95;;
23472;SDS011;11909;52.516;13.564;2023-03-11T01:07:47;14.80;;;10.48;;
23472;SDS011;11909;52.516;13.564;2023-03-11T01:10:14;12.90;;;10.13;;
23472;SDS011;11909;52.516;13.564;2023-03-11T01:12:44;12.75;;;10.00;;
23472;SDS011;11909;52.516;13.564;2023-03-11T01:15:14;14.57;;;11.13;;
23472;SDS011;11909;52.516;13.564;2023-03-11T01:17:44;13.98;;;10.85;;
23472;SDS011;11909;52.516;13.564;2023-03-11T01:20:12;14.30;;;11.18;;
23472;SDS011;11909;52.516;13.564;2023-03-11T01:22:41;14.60;;;11.40;;
23472;SDS011;11909;52.516;13.564;2023-03-11T01:25:10;15.63;;;12.10;;
23472;SDS011;11909;52.516;13.564;2023-03-11T01:27:40;16.42;;;12.70;;
23472;SDS011;11909;52.516;13.564;2023-03-11T01:30:11;17.80;;;12.88;;
23472;SDS011;11909;52.516;13.564;2023-03-11T01:32:41;15.95;;;13.13;;
23472;SDS011;11909;52.516;13.564;2023-03-11T01:35:10;16.55;;;12.57;;
23472;SDS011;11909;52.516;13.564;2023-03-11T01:37:39;17.45;;;12.45;;
23472;SDS011;11909;52.516;13.564;2023-03-11T01:40:07;17.38;;;12.50;;
23472;SDS011;11909;52.516;13.564;2023-03-11T01:42:41;15.38;;;12.13;;
23472;SDS011;11909;52.516;13.564;2023-03-11T01:45:23;17.20;;;12.98;;
23472;SDS011;11909;52.516;13.564;2023-03-11T01:47:59;17.27;;;13.27;;
23472;SDS011;11909;52.516;13.564;2023-03-11T01:50:28;15.68;;;12.52;;
23472;SDS011;11909;52.516;13.564;2023-03-11T01:52:59;15.73;;;12.35;;
23472;SDS011;11909;52.516;13.564;2023-03-11T01:55:27;14.40;;;11.45;;
23472;SDS011;11909;52.516;13.564;2023-03-11T01:57:55;14.13;;;11.10;;
23472;SDS011;11909;52.516;13.564;2023-03-11T02:00:24;12.95;;;10.13;;
23472;SDS011;11909;52.516;13.564;2023-03-11T02:02:52;12.05;;;9.85;;
23472;SDS011;11909;52.516;13.564;2023-03-11T02:05:22;10.07;;;8.65;;
23472;SDS011;11909;52.516;13.564;2023-03-11T02:07:51;8.38;;;7.38;;
23472;SDS011;11909;52.516;13.564;2023-03-11T02:10:21;7.55;;;6.43;;
23472;SDS011;11909;52.516;13.564;2023-03-11T02:12:49;6.63;;;5.40;;
23472;SDS011;11909;52.516;13.564;2023-03-11T02:15:17;7.38;;;6.10;;
23472;SDS011;11909;52.516;13.564;2023-03-11T02:17:46;6.18;;;4.93;;
23472;SDS011;11909;52.516;13.564;2023-03-11T02:20:17;5.68;;;4.63;;
23472;SDS011;11909;52.516;13.564;2023-03-11T02:22:53;5.93;;;4.45;;
23472;SDS011;11909;52.516;13.564;2023-03-11T02:25:25;3.70;;;3.37;;
23472;SDS011;11909;52.516;13.564;2023-03-11T02:28:02;2.88;;;2.60;;
23472;SDS011;11909;52.516;13.564;2023-03-11T02:30:33;2.88;;;2.67;;
23472;SDS011;11909;52.516;13.564;2023-03-11T02:33:02;3.10;;;2.35;;
23472;SDS011;11909;52.516;13.564;2023-03-11T02:35:30;2.38;;;2.17;;
23472;SDS011;11909;52.516;13.564;2023-03-11T02:37:58;2.50;;;2.17;;
23472;SDS011;11909;52.516;13.564;2023-03-11T02:40:34;2.40;;;2.20;;
23472;SDS011;11909;52.516;13.564;2023-03-11T02:43:12;1.88;;;1.77;;
23472;SDS011;11909;52.516;13.564;2023-03-11T02:45:42;1.95;;;1.85;;
23472;SDS011;11909;52.516;13.564;2023-03-11T02:48:11;2.13;;;1.92;;
23472;SDS011;11909;52.516;13.564;2023-03-11T02:50:40;2.20;;;2.00;;
23472;SDS011;11909;52.516;13.564;2023-03-11T02:53:09;2.75;;;2.28;;
23472;SDS011;11909;52.516;13.564;2023-03-11T02:55:37;2.40;;;1.95;;
23472;SDS011;11909;52.516;13.564;2023-03-11T02:58:04;2.28;;;2.00;;
23472;SDS011;11909;52.516;13.564;2023-03-11T03:00:33;2.80;;;2.50;;
23472;SDS011;11909;52.516;13.564;2023-03-11T03:03:01;2.30;;;2.10;;
23472;SDS011;11909;52.516;13.564;2023-03-11T03:05:29;2.42;;;2.22;;
23472;SDS011;11909;52.516;13.564;2023-03-11T03:07:57;2.50;;;2.30;;
23472;SDS011;11909;52.516;13.564;2023-03-11T03:10:25;2.75;;;2.47;;
23472;SDS011;11909;52.516;13.564;2023-03-11T03:12:52;2.45;;;2.25;;
23472;SDS011;11909;52.516;13.564;2023-03-11T03:15:20;2.33;;;2.10;;
23472;SDS011;11909;52.516;13.564;2023-03-11T03:17:49;2.75;;;2.05;;
23472;SDS011;11909;52.516;13.564;2023-03-11T03:20:17;2.22;;;2.03;;
23472;SDS011;11909;52.516;13.564;2023-03-11T03:25:16;2.63;;;2.13;;
23472;SDS011;11909;52.516;13.564;2023-03-11T03:27:44;3.67;;;2.20;;
23472;SDS011;11909;52.516;13.564;2023-03-11T03:30:12;2.50;;;2.30;;
23472;SDS011;11909;52.516;13.564;2023-03-11T03:32:40;2.63;;;2.40;;
23472;SDS011;11909;52.516;13.564;2023-03-11T03:35:09;2.85;;;2.60;;
23472;SDS011;11909;52.516;13.564;2023-03-11T03:37:37;3.17;;;2.40;;
23472;SDS011;11909;52.516;13.564;2023-03-11T03:40:05;2.65;;;2.42;;
23472;SDS011;11909;52.516;13.564;2023-03-11T03:42:34;3.03;;;2.60;;
23472;SDS011;11909;52.516;13.564;2023-03-11T03:45:04;2.75;;;2.55;;
23472;SDS011;11909;52.516;13.564;2023-03-11T03:47:33;2.88;;;2.55;;
23472;SDS011;11909;52.516;13.564;2023-03-11T03:50:02;3.05;;;2.75;;
23472;SDS011;11909;52.516;13.564;2023-03-11T03:52:32;3.45;;;2.63;;
23472;SDS011;11909;52.516;13.564;2023-03-11T03:55:01;2.92;;;2.63;;
23472;SDS011;11909;52.516;13.564;2023-03-11T03:57:29;4.25;;;3.00;;
23472;SDS011;11909;52.516;13.564;2023-03-11T03:59:57;3.17;;;2.88;;
23472;SDS011;11909;52.516;13.564;2023-03-11T04:02:24;2.88;;;2.58;;
23472;SDS011;11909;52.516;13.564;2023-03-11T04:04:52;2.95;;;2.65;;
23472;SDS011;11909;52.516;13.564;2023-03-11T04:07:20;3.40;;;3.10;;
23472;SDS011;11909;52.516;13.564;2023-03-11T04:09:49;3.83;;;3.38;;
23472;SDS011;11909;52.516;13.564;2023-03-11T04:12:17;3.50;;;3.20;;
23472;SDS011;11909;52.516;13.564;2023-03-11T04:14:44;3.60;;;3.13;;
23472;SDS011;11909;52.516;13.564;2023-03-11T04:17:12;3.60;;;3.30;;
23472;SDS011;11909;52.516;13.564;2023-03-11T04:22:10;3.88;;;3.28;;
23472;SDS011;11909;52.516;13.564;2023-03-11T04:24:39;4.47;;;3.67;;
23472;SDS011;11909;52.516;13.564;2023-03-11T04:27:08;4.55;;;3.63;;
23472;SDS011;11909;52.516;13.564;2023-03-11T04:29:35;4.88;;;3.38;;
23472;SDS011;11909;52.516;13.564;2023-03-11T04:32:04;4.75;;;3.80;;
23472;SDS011;11909;52.516;13.564;2023-03-11T04:34:32;4.53;;;3.53;;
23472;SDS011;11909;52.516;13.564;2023-03-11T04:37:00;3.58;;;3.25;;
23472;SDS011;11909;52.516;13.564;2023-03-11T04:39:27;4.65;;;3.50;;
23472;SDS011;11909;52.516;13.564;2023-03-11T04:41:55;3.70;;;3.35;;
23472;SDS011;11909;52.516;13.564;2023-03-11T04:44:24;3.65;;;3.20;;
23472;SDS011;11909;52.516;13.564;2023-03-11T04:46:52;4.22;;;3.50;;
23472;SDS011;11909;52.516;13.564;2023-03-11T04:49:20;4.47;;;3.72;;
23472;SDS011;11909;52.516;13.564;2023-03-11T04:51:47;4.07;;;3.67;;
23472;SDS011;11909;52.516;13.564;2023-03-11T04:54:15;5.32;;;3.50;;
23472;SDS011;11909;52.516;13.564;2023-03-11T04:56:42;3.67;;;3.33;;
23472;SDS011;11909;52.516;13.564;2023-03-11T04:59:10;3.70;;;3.30;;
23472;SDS011;11909;52.516;13.564;2023-03-11T05:01:39;4.28;;;3.25;;
23472;SDS011;11909;52.516;13.564;2023-03-11T05:04:07;4.72;;;3.78;;
23472;SDS011;11909;52.516;13.564;2023-03-11T05:06:37;3.97;;;3.50;;
23472;SDS011;11909;52.516;13.564;2023-03-11T05:09:04;4.50;;;3.50;;
23472;SDS011;11909;52.516;13.564;2023-03-11T05:11:32;3.60;;;3.17;;
23472;SDS011;11909;52.516;13.564;2023-03-11T05:14:00;3.70;;;3.25;;
23472;SDS011;11909;52.516;13.564;2023-03-11T05:16:28;3.83;;;3.35;;
23472;SDS011;11909;52.516;13.564;2023-03-11T05:18:57;3.80;;;3.38;;
23472;SDS011;11909;52.516;13.564;2023-03-11T05:21:24;5.40;;;3.50;;
23472;SDS011;11909;52.516;13.564;2023-03-11T05:23:52;3.88;;;3.30;;
23472;SDS011;11909;52.516;13.564;2023-03-11T05:26:20;4.82;;;3.33;;
23472;SDS011;11909;52.516;13.564;2023-03-11T05:28:47;4.45;;;3.08;;
23472;SDS011;11909;52.516;13.564;2023-03-11T05:31:15;5.63;;;3.35;;
23472;SDS011;11909;52.516;13.564;2023-03-11T05:33:43;3.47;;;3.17;;
23472;SDS011;11909;52.516;13.564;2023-03-11T05:36:12;3.63;;;3.20;;
23472;SDS011;11909;52.516;13.564;2023-03-11T05:38:39;3.45;;;3.03;;
23472;SDS011;11909;52.516;13.564;2023-03-11T05:41:07;4.00;;;3.50;;
23472;SDS011;11909;52.516;13.564;2023-03-11T05:43:35;4.03;;;3.63;;
23472;SDS011;11909;52.516;13.564;2023-03-11T05:46:03;4.65;;;3.08;;
23472;SDS011;11909;52.516;13.564;2023-03-11T05:48:31;3.50;;;3.17;;
23472;SDS011;11909;52.516;13.564;2023-03-11T05:50:58;4.05;;;3.47;;
23472;SDS011;11909;52.516;13.564;2023-03-11T05:53:27;4.03;;;3.30;;
23472;SDS011;11909;52.516;13.564;2023-03-11T05:55:55;3.80;;;3.20;;
23472;SDS011;11909;52.516;13.564;2023-03-11T05:58:24;3.78;;;3.22;;
23472;SDS011;11909;52.516;13.564;2023-03-11T06:00:52;5.05;;;3.63;;
23472;SDS011;11909;52.516;13.564;2023-03-11T06:03:20;3.65;;;3.28;;
23472;SDS011;11909;52.516;13.564;2023-03-11T06:05:48;3.80;;;3.33;;
23472;SDS011;11909;52.516;13.564;2023-03-11T06:08:18;4.07;;;3.53;;
23472;SDS011;11909;52.516;13.564;2023-03-11T06:10:48;3.75;;;3.35;;
23472;SDS011;11909;52.516;13.564;2023-03-11T06:13:16;3.97;;;3.50;;
23472;SDS011;11909;52.516;13.564;2023-03-11T06:15:43;4.60;;;3.58;;
23472;SDS011;11909;52.516;13.564;2023-03-11T06:18:11;4.10;;;3.70;;
23472;SDS011;11909;52.516;13.564;2023-03-11T06:20:39;4.65;;;3.58;;
23472;SDS011;11909;52.516;13.564;2023-03-11T06:23:07;4.25;;;3.55;;
23472;SDS011;11909;52.516;13.564;2023-03-11T06:25:35;4.22;;;3.83;;
23472;SDS011;11909;52.516;13.564;2023-03-11T06:28:04;4.80;;;3.92;;
23472;SDS011;11909;52.516;13.564;2023-03-11T06:30:32;5.40;;;3.72;;
23472;SDS011;11909;52.516;13.564;2023-03-11T06:33:00;4.90;;;3.80;;
23472;SDS011;11909;52.516;13.564;2023-03-11T06:35:27;6.00;;;4.00;;
23472;SDS011;11909;52.516;13.564;2023-03-11T06:37:55;4.45;;;3.70;;
23472;SDS011;11909;52.516;13.564;2023-03-11T06:40:23;5.18;;;3.60;;
23472;SDS011;11909;52.516;13.564;2023-03-11T06:42:50;3.85;;;3.05;;
23472;SDS011;11909;52.516;13.564;2023-03-11T06:45:19;3.22;;;2.92;;
23472;SDS011;11909;52.516;13.564;2023-03-11T06:47:47;3.67;;;3.15;;
23472;SDS011;11909;52.516;13.564;2023-03-11T06:50:15;3.67;;;2.42;;
23472;SDS011;11909;52.516;13.564;2023-03-11T06:52:43;2.85;;;2.50;;
23472;SDS011;11909;52.516;13.564;2023-03-11T06:55:10;3.22;;;2.67;;
23472;SDS011;11909;52.516;13.564;2023-03-11T06:57:38;5.78;;;3.17;;
23472;SDS011;11909;52.516;13.564;2023-03-11T07:00:06;4.30;;;3.42;;
23472;SDS011;11909;52.516;13.564;2023-03-11T07:02:38;5.72;;;4.28;;
23472;SDS011;11909;52.516;13.564;2023-03-11T07:05:06;5.13;;;4.55;;
23472;SDS011;11909;52.516;13.564;2023-03-11T07:07:34;4.57;;;4.13;;
23472;SDS011;11909;52.516;13.564;2023-03-11T07:10:02;6.38;;;4.70;;
23472;SDS011;11909;52.516;13.564;2023-03-11T07:12:30;5.82;;;4.50;;
23472;SDS011;11909;52.516;13.564;2023-03-11T07:14:58;5.97;;;4.57;;
23472;SDS011;11909;52.516;13.564;2023-03-11T07:17:26;6.95;;;4.60;;
23472;SDS011;11909;52.516;13.564;2023-03-11T07:19:55;5.50;;;4.30;;
23472;SDS011;11909;52.516;13.564;2023-03-11T07:22:23;5.38;;;4.60;;
23472;SDS011;11909;52.516;13.564;2023-03-11T07:24:51;7.97;;;4.80;;
23472;SDS011;11909;52.516;13.564;2023-03-11T07:27:19;7.22;;;4.82;;
23472;SDS011;11909;52.516;13.564;2023-03-11T07:29:47;7.50;;;4.55;;
23472;SDS011;11909;52.516;13.564;2023-03-11T07:32:15;5.78;;;4.70;;
23472;SDS011;11909;52.516;13.564;2023-03-11T07:34:43;6.07;;;4.25;;
23472;SDS011;11909;52.516;13.564;2023-03-11T07:37:12;7.20;;;4.70;;
23472;SDS011;11909;52.516;13.564;2023-03-11T07:39:40;9.02;;;5.15;;
23472;SDS011;11909;52.516;13.564;2023-03-11T07:42:08;8.15;;;4.70;;
23472;SDS011;11909;52.516;13.564;2023-03-11T07:44:36;5.97;;;4.35;;
23472;SDS011;11909;52.516;13.564;2023-03-11T07:47:04;5.15;;;4.00;;
23472;SDS011;11909;52.516;13.564;2023-03-11T07:49:32;11.27;;;4.43;;
23472;SDS011;11909;52.516;13.564;2023-03-11T07:51:59;7.60;;;4.20;;
23472;SDS011;11909;52.516;13.564;2023-03-11T07:54:29;6.97;;;4.00;;
23472;SDS011;11909;52.516;13.564;2023-03-11T07:56:56;5.28;;;4.32;;
23472;SDS011;11909;52.516;13.564;2023-03-11T07:59:24;7.15;;;4.57;;
23472;SDS011;11909;52.516;13.564;2023-03-11T08:01:52;6.47;;;4.40;;
23472;SDS011;11909;52.516;13.564;2023-03-11T08:04:19;7.80;;;4.72;;
23472;SDS011;11909;52.516;13.564;2023-03-11T08:06:47;8.82;;;4.60;;
23472;SDS011;11909;52.516;13.564;2023-03-11T08:09:15;7.72;;;4.22;;
23472;SDS011;11909;52.516;13.564;2023-03-11T08:11:44;47.47;;;18.88;;
23472;SDS011;11909;52.516;13.564;2023-03-11T08:14:14;31.52;;;13.82;;
23472;SDS011;11909;52.516;13.564;2023-03-11T08:16:42;6.20;;;4.60;;
23472;SDS011;11909;52.516;13.564;2023-03-11T08:19:10;15.80;;;7.93;;
23472;SDS011;11909;52.516;13.564;2023-03-11T08:21:38;13.65;;;8.48;;
23472;SDS011;11909;52.516;13.564;2023-03-11T08:24:06;10.27;;;5.18;;
23472;SDS011;11909;52.516;13.564;2023-03-11T08:26:36;7.38;;;5.10;;
23472;SDS011;11909;52.516;13.564;2023-03-11T08:29:06;7.45;;;5.30;;
23472;SDS011;11909;52.516;13.564;2023-03-11T08:31:33;6.88;;;4.90;;
23472;SDS011;11909;52.516;13.564;2023-03-11T08:34:02;6.15;;;4.70;;
23472;SDS011;11909;52.516;13.564;2023-03-11T08:36:31;8.52;;;4.82;;
23472;SDS011;11909;52.516;13.564;2023-03-11T08:38:59;7.05;;;5.30;;
23472;SDS011;11909;52.516;13.564;2023-03-11T08:41:28;9.95;;;5.57;;
23472;SDS011;11909;52.516;13.564;2023-03-11T08:43:55;7.47;;;5.05;;
23472;SDS011;11909;52.516;13.564;2023-03-11T08:46:25;8.25;;;5.28;;
23472;SDS011;11909;52.516;13.564;2023-03-11T08:48:54;6.65;;;5.30;;
23472;SDS011;11909;52.516;13.564;2023-03-11T08:51:26;9.98;;;5.75;;
23472;SDS011;11909;52.516;13.564;2023-03-11T08:53:54;9.90;;;6.32;;
23472;SDS011;11909;52.516;13.564;2023-03-11T08:56:21;9.13;;;5.80;;
23472;SDS011;11909;52.516;13.564;2023-03-11T08:58:49;7.22;;;5.18;;
23472;SDS011;11909;52.516;13.564;2023-03-11T09:01:17;7.72;;;5.18;;
23472;SDS011;11909;52.516;13.564;2023-03-11T09:03:47;8.57;;;5.70;;
23472;SDS011;11909;52.516;13.564;2023-03-11T09:06:15;7.28;;;5.32;;
23472;SDS011;11909;52.516;13.564;2023-03-11T09:08:44;22.70;;;11.70;;
23472;SDS011;11909;52.516;13.564;2023-03-11T09:11:14;33.40;;;15.45;;
23472;SDS011;11909;52.516;13.564;2023-03-11T09:13:42;8.55;;;6.10;;
23472;SDS011;11909;52.516;13.564;2023-03-11T09:16:11;7.43;;;5.55;;
23472;SDS011;11909;52.516;13.564;2023-03-11T09:18:39;8.90;;;5.72;;
23472;SDS011;11909;52.516;13.564;2023-03-11T09:21:09;8.27;;;5.38;;
23472;SDS011;11909;52.516;13.564;2023-03-11T09:23:37;5.97;;;5.30;;
23472;SDS011;11909;52.516;13.564;2023-03-11T09:26:09;9.68;;;5.32;;
23472;SDS011;11909;52.516;13.564;2023-03-11T09:28:37;6.95;;;4.82;;
23472;SDS011;11909;52.516;13.564;2023-03-11T09:31:05;9.40;;;5.00;;
23472;SDS011;11909;52.516;13.564;2023-03-11T09:33:35;7.57;;;5.00;;
23472;SDS011;11909;52.516;13.564;2023-03-11T09:36:04;6.53;;;4.80;;
23472;SDS011;11909;52.516;13.564;2023-03-11T09:38:33;8.73;;;5.70;;
23472;SDS011;11909;52.516;13.564;2023-03-11T09:41:02;6.38;;;4.93;;
23472;SDS011;11909;52.516;13.564;2023-03-11T09:43:40;6.30;;;4.93;;
23472;SDS011;11909;52.516;13.564;2023-03-11T09:46:22;7.43;;;4.97;;
23472;SDS011;11909;52.516;13.564;2023-03-11T09:49:03;5.05;;;4.55;;
23472;SDS011;11909;52.516;13.564;2023-03-11T09:51:36;21.25;;;12.52;;
23472;SDS011;11909;52.516;13.564;2023-03-11T09:54:10;22.08;;;11.07;;
23472;SDS011;11909;52.516;13.564;2023-03-11T09:56:39;6.90;;;5.20;;
23472;SDS011;11909;52.516;13.564;2023-03-11T09:59:13;29.83;;;15.32;;
23472;SDS011;11909;52.516;13.564;2023-03-11T10:01:45;12.70;;;6.45;;
23472;SDS011;11909;52.516;13.564;2023-03-11T10:04:17;7.88;;;5.65;;
23472;SDS011;11909;52.516;13.564;2023-03-11T10:06:48;7.35;;;5.60;;
23472;SDS011;11909;52.516;13.564;2023-03-11T10:09:29;6.07;;;4.80;;
23472;SDS011;11909;52.516;13.564;2023-03-11T10:12:08;19.48;;;9.98;;
23472;SDS011;11909;52.516;13.564;2023-03-11T10:14:47;8.85;;;5.55;;
23472;SDS011;11909;52.516;13.564;2023-03-11T10:17:27;8.82;;;5.13;;
23472;SDS011;11909;52.516;13.564;2023-03-11T10:20:06;5.70;;;4.35;;
23472;SDS011;11909;52.516;13.564;2023-03-11T10:22:41;7.75;;;4.57;;
23472;SDS011;11909;52.516;13.564;2023-03-11T10:25:18;7.80;;;4.90;;
23472;SDS011;11909;52.516;13.564;2023-03-11T10:27:49;5.85;;;4.28;;
23472;SDS011;11909;52.516;13.564;2023-03-11T10:30:23;5.18;;;4.15;;
23472;SDS011;11909;52.516;13.564;2023-03-11T10:32:56;5.22;;;4.70;;
23472;SDS011;11909;52.516;13.564;2023-03-11T10:35:28;6.00;;;4.38;;
23472;SDS011;11909;52.516;13.564;2023-03-11T10:38:04;6.63;;;4.38;;
23472;SDS011;11909;52.516;13.564;2023-03-11T10:40:40;6.20;;;4.15;;
23472;SDS011;11909;52.516;13.564;2023-03-11T10:43:10;4.55;;;3.85;;
23472;SDS011;11909;52.516;13.564;2023-03-11T10:45:41;5.13;;;4.25;;
23472;SDS011;11909;52.516;13.564;2023-03-11T10:48:11;5.30;;;3.92;;
23472;SDS011;11909;52.516;13.564;2023-03-11T10:50:43;5.28;;;4.10;;
23472;SDS011;11909;52.516;13.564;2023-03-11T10:53:16;5.90;;;5.05;;
23472;SDS011;11909;52.516;13.564;2023-03-11T10:55:47;7.90;;;5.35;;
23472;SDS011;11909;52.516;13.564;2023-03-11T10:58:17;5.93;;;4.57;;
23472;SDS011;11909;52.516;13.564;2023-03-11T11:03:26;5.88;;;5.00;;
23472;SDS011;11909;52.516;13.564;2023-03-11T11:05:58;5.50;;;4.47;;
23472;SDS011;11909;52.516;13.564;2023-03-11T11:08:29;5.68;;;4.40;;
23472;SDS011;11909;52.516;13.564;2023-03-11T11:11:00;4.95;;;4.22;;
23472;SDS011;11909;52.516;13.564;2023-03-11T11:13:29;5.72;;;4.82;;
23472;SDS011;11909;52.516;13.564;2023-03-11T11:16:00;8.25;;;5.40;;
23472;SDS011;11909;52.516;13.564;2023-03-11T11:18:30;6.30;;;5.43;;
23472;SDS011;11909;52.516;13.564;2023-03-11T11:23:36;13.88;;;7.93;;
23472;SDS011;11909;52.516;13.564;2023-03-11T11:26:15;12.10;;;7.63;;
23472;SDS011;11909;52.516;13.564;2023-03-11T11:28:45;8.00;;;5.78;;
23472;SDS011;11909;52.516;13.564;2023-03-11T11:31:21;7.28;;;5.68;;
23472;SDS011;11909;52.516;13.564;2023-03-11T11:33:51;7.57;;;5.68;;
23472;SDS011;11909;52.516;13.564;2023-03-11T11:36:21;7.00;;;5.65;;
23472;SDS011;11909;52.516;13.564;2023-03-11T11:38:54;6.97;;;5.25;;
23472;SDS011;11909;52.516;13.564;2023-03-11T11:41:23;7.90;;;6.05;;
23472;SDS011;11909;52.516;13.564;2023-03-11T11:43:54;7.60;;;5.80;;
23472;SDS011;11909;52.516;13.564;2023-03-11T11:46:24;7.93;;;6.15;;
23472;SDS011;11909;52.516;13.564;2023-03-11T11:48:59;10.48;;;6.40;;
23472;SDS011;11909;52.516;13.564;2023-03-11T11:51:34;8.13;;;6.55;;
23472;SDS011;11909;52.516;13.564;2023-03-11T11:54:09;9.77;;;6.22;;
23472;SDS011;11909;52.516;13.564;2023-03-11T11:56:45;9.23;;;6.88;;
23472;SDS011;11909;52.516;13.564;2023-03-11T11:59:14;8.27;;;6.28;;
23472;SDS011;11909;52.516;13.564;2023-03-11T12:01:46;11.02;;;7.43;;
23472;SDS011;11909;52.516;13.564;2023-03-11T12:07:09;11.95;;;7.00;;
23472;SDS011;11909;52.516;13.564;2023-03-11T12:09:49;8.88;;;7.10;;
23472;SDS011;11909;52.516;13.564;2023-03-11T12:12:26;9.25;;;7.03;;
23472;SDS011;11909;52.516;13.564;2023-03-11T12:15:00;9.00;;;6.50;;
23472;SDS011;11909;52.516;13.564;2023-03-11T12:17:34;12.82;;;7.53;;
23472;SDS011;11909;52.516;13.564;2023-03-11T12:20:05;10.90;;;7.00;;
23472;SDS011;11909;52.516;13.564;2023-03-11T12:22:42;11.63;;;7.63;;
23472;SDS011;11909;52.516;13.564;2023-03-11T12:25:25;9.77;;;7.90;;
23472;SDS011;11909;52.516;13.564;2023-03-11T12:28:00;8.77;;;7.03;;
23472;SDS011;11909;52.516;13.564;2023-03-11T12:30:36;10.10;;;7.25;;
23472;SDS011;11909;52.516;13.564;2023-03-11T12:33:11;10.25;;;7.38;;
23472;SDS011;11909;52.516;13.564;2023-03-11T12:35:47;12.27;;;7.53;;
23472;SDS011;11909;52.516;13.564;2023-03-11T12:38:20;9.43;;;7.47;;
23472;SDS011;11909;52.516;13.564;2023-03-11T12:40:58;10.93;;;7.28;;
23472;SDS011;11909;52.516;13.564;2023-03-11T12:49:37;9.88;;;7.20;;
23472;SDS011;11909;52.516;13.564;2023-03-11T12:52:16;9.45;;;7.10;;
23472;SDS011;11909;52.516;13.564;2023-03-11T13:04:14;11.55;;;7.32;;
23472;SDS011;11909;52.516;13.564;2023-03-11T13:06:57;9.75;;;7.40;;
23472;SDS011;11909;52.516;13.564;2023-03-11T13:09:40;8.73;;;7.38;;
23472;SDS011;11909;52.516;13.564;2023-03-11T13:18:12;9.45;;;6.97;;
23472;SDS011;11909;52.516;13.564;2023-03-11T13:20:44;10.38;;;7.03;;
23472;SDS011;11909;52.516;13.564;2023-03-11T13:23:24;9.18;;;7.10;;
23472;SDS011;11909;52.516;13.564;2023-03-11T13:31:59;10.95;;;7.78;;
23472;SDS011;11909;52.516;13.564;2023-03-11T13:34:40;9.10;;;7.28;;
23472;SDS011;11909;52.516;13.564;2023-03-11T13:37:20;9.95;;;6.93;;
23472;SDS011;11909;52.516;13.564;2023-03-11T13:39:55;10.13;;;6.57;;
23472;SDS011;11909;52.516;13.564;2023-03-11T13:42:33;9.25;;;7.00;;
23472;SDS011;11909;52.516;13.564;2023-03-11T13:45:04;8.25;;;6.57;;
23472;SDS011;11909;52.516;13.564;2023-03-11T13:47:39;9.32;;;6.88;;
23472;SDS011;11909;52.516;13.564;2023-03-11T13:50:15;11.43;;;7.10;;
23472;SDS011;11909;52.516;13.564;2023-03-11T13:52:49;10.35;;;6.97;;
23472;SDS011;11909;52.516;13.564;2023-03-11T13:55:19;9.98;;;6.72;;
23472;SDS011;11909;52.516;13.564;2023-03-11T13:57:49;9.18;;;7.38;;
23472;SDS011;11909;52.516;13.564;2023-03-11T14:00:20;8.77;;;6.78;;
23472;SDS011;11909;52.516;13.564;2023-03-11T14:02:50;9.32;;;6.28;;
23472;SDS011;11909;52.516;13.564;2023-03-11T14:05:23;7.78;;;6.00;;
23472;SDS011;11909;52.516;13.564;2023-03-11T14:07:53;8.30;;;6.00;;
23472;SDS011;11909;52.516;13.564;2023-03-11T14:10:21;8.68;;;6.97;;
23472;SDS011;11909;52.516;13.564;2023-03-11T14:13:03;7.93;;;5.85;;
23472;SDS011;11909;52.516;13.564;2023-03-11T14:15:36;8.35;;;6.35;;
23472;SDS011;11909;52.516;13.564;2023-03-11T14:18:29;7.70;;;6.22;;
23472;SDS011;11909;52.516;13.564;2023-03-11T14:21:00;8.18;;;6.07;;
23472;SDS011;11909;52.516;13.564;2023-03-11T14:23:31;8.60;;;5.85;;
23472;SDS011;11909;52.516;13.564;2023-03-11T14:26:02;7.45;;;5.78;;
23472;SDS011;11909;52.516;13.564;2023-03-11T14:28:35;8.65;;;5.78;;
23472;SDS011;11909;52.516;13.564;2023-03-11T14:31:06;6.65;;;4.97;;
23472;SDS011;11909;52.516;13.564;2023-03-11T14:33:34;7.40;;;4.78;;
23472;SDS011;11909;52.516;13.564;2023-03-11T14:36:04;6.55;;;4.97;;
23472;SDS011;11909;52.516;13.564;2023-03-11T14:38:41;7.10;;;4.97;;
23472;SDS011;11909;52.516;13.564;2023-03-11T14:41:09;7.75;;;4.95;;
23472;SDS011;11909;52.516;13.564;2023-03-11T14:43:42;6.72;;;4.47;;
23472;SDS011;11909;52.516;13.564;2023-03-11T14:46:15;9.27;;;5.18;;
23472;SDS011;11909;52.516;13.564;2023-03-11T14:48:46;6.05;;;4.60;;
23472;SDS011;11909;52.516;13.564;2023-03-11T14:51:17;7.15;;;5.28;;
23472;SDS011;11909;52.516;13.564;2023-03-11T14:53:49;7.75;;;4.93;;
23472;SDS011;11909;52.516;13.564;2023-03-11T14:56:22;7.55;;;4.97;;
23472;SDS011;11909;52.516;13.564;2023-03-11T14:58:53;5.75;;;3.95;;
23472;SDS011;11909;52.516;13.564;2023-03-11T15:01:34;5.30;;;4.20;;
23472;SDS011;11909;52.516;13.564;2023-03-11T15:04:07;5.25;;;3.83;;
23472;SDS011;11909;52.516;13.564;2023-03-11T15:06:39;4.68;;;3.72;;
23472;SDS011;11909;52.516;13.564;2023-03-11T15:09:09;6.97;;;4.57;;
23472;SDS011;11909;52.516;13.564;2023-03-11T15:11:43;5.90;;;3.90;;
23472;SDS011;11909;52.516;13.564;2023-03-11T15:14:19;4.43;;;3.60;;
23472;SDS011;11909;52.516;13.564;2023-03-11T15:16:49;4.78;;;3.97;;
23472;SDS011;11909;52.516;13.564;2023-03-11T15:19:28;4.85;;;4.10;;
23472;SDS011;11909;52.516;13.564;2023-03-11T15:21:59;6.78;;;4.25;;
23472;SDS011;11909;52.516;13.564;2023-03-11T15:24:31;5.80;;;4.32;;
23472;SDS011;11909;52.516;13.564;2023-03-11T15:27:00;6.57;;;4.20;;